createdAt,value
2017-10-20T00:01:22.624Z,13.30
2017-10-20T00:03:50.232Z,13.32
2017-10-20T00:06:18.161Z,13.28
2017-10-20T00:08:46.034Z,13.17
2017-10-20T00:11:13.621Z,13.22
2017-10-20T00:13:41.238Z,13.20
2017-10-20T00:16:08.818Z,13.17
2017-10-20T00:18:36.440Z,13.14
2017-10-20T00:21:04.061Z,13.12
2017-10-20T00:23:31.650Z,13.12
2017-10-20T00:25:59.370Z,13.12
2017-10-20T00:28:26.966Z,13.18
2017-10-20T00:30:54.597Z,13.16
2017-10-20T00:33:22.462Z,13.19
2017-10-20T00:35:50.057Z,13.09
2017-10-20T00:38:17.666Z,13.13
2017-10-20T00:40:45.259Z,13.05
2017-10-20T00:43:12.877Z,13.01
2017-10-20T00:45:40.457Z,13.04
2017-10-20T00:48:08.341Z,13.03
2017-10-20T00:50:35.969Z,13.00
2017-10-20T00:53:03.554Z,12.96
2017-10-20T00:55:31.429Z,12.96
2017-10-20T00:57:59.032Z,12.98
2017-10-20T01:00:26.653Z,12.96
2017-10-20T01:02:54.263Z,12.97
2017-10-20T01:05:21.845Z,12.95
2017-10-20T01:07:49.473Z,12.96
2017-10-20T01:10:17.069Z,12.93
2017-10-20T01:12:44.662Z,12.88
2017-10-20T01:15:12.280Z,12.85
2017-10-20T01:17:39.924Z,12.84
2017-10-20T01:20:07.538Z,12.83
2017-10-20T01:22:35.127Z,12.83
2017-10-20T01:25:02.708Z,12.81
2017-10-20T01:27:30.637Z,12.83
2017-10-20T01:29:58.233Z,12.82
2017-10-20T01:32:25.891Z,12.81
2017-10-20T01:34:53.479Z,12.81
2017-10-20T01:37:21.105Z,12.79
2017-10-20T01:39:48.721Z,12.81
2017-10-20T01:42:16.305Z,12.82
2017-10-20T01:44:43.933Z,12.82
2017-10-20T01:47:11.512Z,12.82
2017-10-20T01:49:39.104Z,12.77
2017-10-20T01:52:06.731Z,12.76
2017-10-20T01:54:34.313Z,12.75
2017-10-20T01:57:01.943Z,12.72
2017-10-20T01:59:29.532Z,12.75
2017-10-20T02:01:57.186Z,12.76
2017-10-20T02:04:24.812Z,12.70
2017-10-20T02:06:52.405Z,12.63
2017-10-20T02:09:20.299Z,12.62
2017-10-20T02:11:47.885Z,12.61
2017-10-20T02:14:15.468Z,12.65
2017-10-20T02:16:43.085Z,12.63
2017-10-20T02:19:10.668Z,12.61
2017-10-20T02:21:38.300Z,12.60
2017-10-20T02:24:05.894Z,12.58
2017-10-20T02:26:33.497Z,12.50
2017-10-20T02:29:01.397Z,12.56
2017-10-20T02:31:28.979Z,12.57
2017-10-20T02:33:56.641Z,12.51
2017-10-20T02:36:24.249Z,12.46
2017-10-20T02:38:52.149Z,12.49
2017-10-20T02:41:19.776Z,12.48
2017-10-20T02:43:47.682Z,12.48
2017-10-20T02:46:15.313Z,12.44
2017-10-20T02:48:42.921Z,12.40
2017-10-20T02:51:10.519Z,12.34
2017-10-20T02:53:38.447Z,12.34
2017-10-20T02:56:06.034Z,12.37
2017-10-20T02:58:33.666Z,12.35
2017-10-20T03:01:01.552Z,12.34
2017-10-20T03:03:29.144Z,12.30
2017-10-20T03:05:56.752Z,12.30
2017-10-20T03:08:24.350Z,12.31
2017-10-20T03:10:51.985Z,12.31
2017-10-20T03:13:19.569Z,12.30
2017-10-20T03:15:47.148Z,12.30
2017-10-20T03:18:14.807Z,12.26
2017-10-20T03:20:42.459Z,12.24
2017-10-20T03:23:10.084Z,12.23
2017-10-20T03:25:37.694Z,12.28
2017-10-20T03:28:05.281Z,12.24
2017-10-20T03:30:32.897Z,12.24
2017-10-20T03:33:00.569Z,12.19
2017-10-20T03:35:28.188Z,12.18
2017-10-20T03:37:55.778Z,12.19
2017-10-20T03:40:23.730Z,12.17
2017-10-20T03:42:51.349Z,12.10
2017-10-20T03:45:18.937Z,12.09
2017-10-20T03:47:46.920Z,12.09
2017-10-20T03:50:14.561Z,12.09
2017-10-20T03:52:42.147Z,12.10
2017-10-20T03:55:09.814Z,12.03
2017-10-20T03:57:37.405Z,12.06
2017-10-20T04:00:05.265Z,12.02
2017-10-20T04:02:32.849Z,12.02
2017-10-20T04:05:00.446Z,12.06
2017-10-20T04:07:28.072Z,12.03
2017-10-20T04:09:55.995Z,12.05
2017-10-20T04:12:23.616Z,12.04
2017-10-20T04:14:51.211Z,12.02
2017-10-20T04:17:18.796Z,12.02
2017-10-20T04:19:46.746Z,11.99
2017-10-20T04:22:14.339Z,11.99
2017-10-20T04:24:41.969Z,11.97
2017-10-20T04:27:09.566Z,11.98
2017-10-20T04:29:37.156Z,11.94
2017-10-20T04:32:04.816Z,11.94
2017-10-20T04:34:32.401Z,11.90
2017-10-20T04:37:00.493Z,11.88
2017-10-20T04:39:28.365Z,11.83
2017-10-20T04:41:55.960Z,11.88
2017-10-20T04:44:23.600Z,11.87
2017-10-20T04:46:51.188Z,11.86
2017-10-20T04:49:18.817Z,11.86
2017-10-20T04:51:46.409Z,11.87
2017-10-20T04:54:14.008Z,11.89
2017-10-20T04:56:41.684Z,11.89
2017-10-20T04:59:09.562Z,11.93
2017-10-20T05:01:37.195Z,11.91
2017-10-20T05:04:04.789Z,11.91
2017-10-20T05:06:32.372Z,11.91
2017-10-20T05:08:59.986Z,11.96
2017-10-20T05:11:27.578Z,11.92
2017-10-20T05:13:55.206Z,11.95
2017-10-20T05:16:22.795Z,11.95
2017-10-20T05:18:50.373Z,11.94
2017-10-20T05:21:18.380Z,11.94
2017-10-20T05:23:45.978Z,11.89
2017-10-20T05:26:13.600Z,11.88
2017-10-20T05:28:41.184Z,11.90
2017-10-20T05:31:08.824Z,11.85
2017-10-20T05:33:36.442Z,11.90
2017-10-20T05:36:04.029Z,11.86
2017-10-20T05:38:31.663Z,11.86
2017-10-20T05:40:59.244Z,11.94
2017-10-20T05:43:26.821Z,11.95
2017-10-20T05:45:54.756Z,11.98
2017-10-20T05:48:22.338Z,11.98
2017-10-20T05:50:49.989Z,11.91
2017-10-20T05:53:17.582Z,11.83
2017-10-20T05:55:46.019Z,11.85
2017-10-20T05:58:13.637Z,11.84
2017-10-20T06:00:41.216Z,11.90
2017-10-20T06:03:08.897Z,11.85
2017-10-20T06:05:36.545Z,11.87
2017-10-20T06:08:04.133Z,11.88
2017-10-20T06:10:31.767Z,11.86
2017-10-20T06:12:59.430Z,11.87
2017-10-20T06:15:27.058Z,11.85
2017-10-20T06:17:54.638Z,11.85
2017-10-20T06:20:22.285Z,11.89
2017-10-20T06:22:49.902Z,11.91
2017-10-20T06:25:17.527Z,11.97
2017-10-20T06:27:45.155Z,11.97
2017-10-20T06:30:12.731Z,11.96
2017-10-20T06:32:40.340Z,11.92
2017-10-20T06:35:08.016Z,11.97
2017-10-20T06:37:35.611Z,11.99
2017-10-20T06:40:03.255Z,12.06
2017-10-20T06:42:30.842Z,12.08
2017-10-20T06:44:58.439Z,12.10
2017-10-20T06:47:26.065Z,12.18
2017-10-20T06:49:53.648Z,12.19
2017-10-20T06:52:21.257Z,12.22
2017-10-20T06:54:48.888Z,12.25
2017-10-20T06:57:17.346Z,12.25
2017-10-20T07:02:18.764Z,12.27
2017-10-20T07:04:46.401Z,12.32
2017-10-20T07:07:14.103Z,12.38
2017-10-20T07:09:41.732Z,12.42
2017-10-20T07:12:09.324Z,12.41
2017-10-20T07:14:36.944Z,12.44
2017-10-20T07:17:04.563Z,12.48
2017-10-20T07:19:40.905Z,12.50
2017-10-20T07:22:08.581Z,12.57
2017-10-20T07:24:36.162Z,12.59
2017-10-20T07:27:03.812Z,12.57
2017-10-20T07:29:31.400Z,12.56
2017-10-20T07:31:59.030Z,12.62
2017-10-20T07:34:26.678Z,12.67
2017-10-20T07:36:54.264Z,12.74
2017-10-20T07:39:21.897Z,12.79
2017-10-20T07:41:49.476Z,12.80
2017-10-20T07:44:17.248Z,12.90
2017-10-20T07:46:44.860Z,12.95
2017-10-20T07:49:12.552Z,12.96
2017-10-20T07:51:40.175Z,12.99
2017-10-20T07:54:07.787Z,13.01
2017-10-20T07:56:35.414Z,13.05
2017-10-20T07:59:03.071Z,13.08
2017-10-20T08:01:30.968Z,13.03
2017-10-20T08:03:58.593Z,13.04
2017-10-20T08:06:26.605Z,13.14
2017-10-20T08:08:54.236Z,13.30
2017-10-20T08:11:21.821Z,13.44
2017-10-20T08:13:49.702Z,13.51
2017-10-20T08:16:17.329Z,13.56
2017-10-20T08:18:44.917Z,13.47
2017-10-20T08:21:12.570Z,13.55
2017-10-20T08:23:40.169Z,13.52
2017-10-20T08:26:07.756Z,13.59
2017-10-20T08:28:35.393Z,13.75
2017-10-20T08:31:03.052Z,13.90
2017-10-20T08:33:30.997Z,14.01
2017-10-20T08:35:58.607Z,14.11
2017-10-20T08:38:26.191Z,14.16
2017-10-20T08:40:54.197Z,14.26
2017-10-20T08:43:21.799Z,14.33
2017-10-20T08:45:49.426Z,14.44
2017-10-20T08:48:17.009Z,14.51
2017-10-20T08:50:44.869Z,14.76
2017-10-20T08:53:12.720Z,14.86
2017-10-20T08:55:40.309Z,14.95
2017-10-20T08:58:07.950Z,15.07
2017-10-20T09:00:35.803Z,15.10
2017-10-20T09:03:03.406Z,15.14
2017-10-20T09:05:31.022Z,15.18
2017-10-20T09:07:58.621Z,15.20
2017-10-20T09:10:26.245Z,15.28
2017-10-20T09:12:53.832Z,15.36
2017-10-20T09:15:21.804Z,15.39
2017-10-20T09:17:49.419Z,15.37
2017-10-20T09:20:17.006Z,15.39
2017-10-20T09:22:44.984Z,15.44
2017-10-20T09:25:12.578Z,15.42
2017-10-20T09:27:40.168Z,15.48
2017-10-20T09:30:07.774Z,15.62
2017-10-20T09:32:35.627Z,15.57
2017-10-20T09:35:03.269Z,15.75
2017-10-20T09:37:30.849Z,15.94
2017-10-20T09:39:58.431Z,16.07
2017-10-20T09:42:26.064Z,16.15
2017-10-20T09:44:53.668Z,16.11
2017-10-20T09:47:21.307Z,16.16
2017-10-20T09:49:48.907Z,16.33
2017-10-20T09:52:16.541Z,16.37
2017-10-20T09:54:44.162Z,16.38
2017-10-20T09:57:11.752Z,16.39
2017-10-20T09:59:39.376Z,16.31
2017-10-20T10:02:06.969Z,16.42
2017-10-20T10:04:34.556Z,16.62
2017-10-20T10:07:02.174Z,16.78
2017-10-20T10:09:29.757Z,16.88
2017-10-20T10:11:57.376Z,16.95
2017-10-20T10:14:24.964Z,16.90
2017-10-20T10:16:52.556Z,16.93
2017-10-20T10:19:20.184Z,16.78
2017-10-20T10:21:49.843Z,16.90
2017-10-20T10:24:17.660Z,16.80
2017-10-20T10:26:45.288Z,16.74
2017-10-20T10:29:12.885Z,16.78
2017-10-20T10:31:40.493Z,16.63
2017-10-20T10:34:08.076Z,16.61
2017-10-20T10:36:35.713Z,16.70
2017-10-20T10:39:03.330Z,16.67
2017-10-20T10:41:30.927Z,16.65
2017-10-20T10:43:58.883Z,16.53
2017-10-20T10:46:26.474Z,16.60
2017-10-20T10:48:54.393Z,16.71
2017-10-20T10:51:21.982Z,16.88
2017-10-20T10:53:49.572Z,16.96
2017-10-20T10:56:17.502Z,16.94
2017-10-20T10:58:45.102Z,17.00
2017-10-20T11:01:12.840Z,16.97
2017-10-20T11:03:40.462Z,16.99
2017-10-20T11:06:19.853Z,16.99
2017-10-20T11:08:59.266Z,17.05
2017-10-20T11:11:38.688Z,17.08
2017-10-20T11:14:06.282Z,17.01
2017-10-20T11:16:33.868Z,16.99
2017-10-20T11:19:01.476Z,17.08
2017-10-20T11:21:29.094Z,17.03
2017-10-20T11:23:56.718Z,16.91
2017-10-20T11:26:24.584Z,16.90
2017-10-20T11:28:52.181Z,16.88
2017-10-20T11:31:19.805Z,16.84
2017-10-20T11:33:47.390Z,16.75
2017-10-20T11:36:15.052Z,16.75
2017-10-20T11:38:42.640Z,16.60
2017-10-20T11:41:10.361Z,16.61
2017-10-20T11:43:37.972Z,16.62
2017-10-20T11:46:05.632Z,16.50
2017-10-20T11:48:33.554Z,16.48
2017-10-20T11:51:01.149Z,16.41
2017-10-20T11:53:28.742Z,16.36
2017-10-20T11:55:56.365Z,16.33
2017-10-20T11:58:23.954Z,16.33
2017-10-20T12:00:51.870Z,16.33
2017-10-20T12:03:19.448Z,16.33
2017-10-20T12:05:47.055Z,16.36
2017-10-20T12:08:14.675Z,16.45
2017-10-20T12:10:42.285Z,16.42
2017-10-20T12:13:09.901Z,16.39
2017-10-20T12:15:37.496Z,16.40
2017-10-20T12:18:05.089Z,16.37
2017-10-20T12:20:32.771Z,16.37
2017-10-20T12:23:00.433Z,16.37
2017-10-20T12:25:28.072Z,16.48
2017-10-20T12:27:55.656Z,16.49
2017-10-20T12:30:23.240Z,16.40
2017-10-20T12:32:50.863Z,16.39
2017-10-20T12:35:18.453Z,16.35
2017-10-20T12:37:46.106Z,16.32
2017-10-20T12:40:13.745Z,16.30
2017-10-20T12:42:41.339Z,16.43
2017-10-20T12:45:08.964Z,16.45
2017-10-20T12:47:36.557Z,16.43
2017-10-20T12:50:04.228Z,16.39
2017-10-20T12:52:31.825Z,16.38
2017-10-20T12:54:59.417Z,16.41
2017-10-20T12:57:27.049Z,16.38
2017-10-20T12:59:54.640Z,16.41
2017-10-20T13:02:22.271Z,16.38
2017-10-20T13:04:49.905Z,16.38
2017-10-20T13:07:17.493Z,16.33
2017-10-20T13:09:45.113Z,16.30
2017-10-20T13:12:12.972Z,16.33
2017-10-20T13:14:40.624Z,16.34
2017-10-20T13:17:08.217Z,16.38
2017-10-20T13:19:35.819Z,16.46
2017-10-20T13:22:03.439Z,16.41
2017-10-20T13:24:31.036Z,16.46
2017-10-20T13:26:58.664Z,16.50
2017-10-20T13:29:26.273Z,16.56
2017-10-20T13:31:53.868Z,16.63
2017-10-20T13:34:21.496Z,16.64
2017-10-20T13:36:50.012Z,16.65
2017-10-20T13:39:17.985Z,16.71
2017-10-20T13:41:45.568Z,16.73
2017-10-20T13:44:13.205Z,16.75
2017-10-20T13:46:40.840Z,16.76
2017-10-20T13:49:08.436Z,16.77
2017-10-20T13:51:36.099Z,16.76
2017-10-20T13:54:03.708Z,16.78
2017-10-20T13:56:31.315Z,16.77
2017-10-20T13:58:58.929Z,16.78
2017-10-20T14:01:26.521Z,16.75
2017-10-20T14:03:54.136Z,16.71
2017-10-20T14:06:21.765Z,16.70
2017-10-20T14:08:49.400Z,16.77
2017-10-20T14:11:17.646Z,16.84
2017-10-20T14:13:45.281Z,16.89
2017-10-20T14:16:12.885Z,16.85
2017-10-20T14:18:40.542Z,16.79
2017-10-20T14:21:08.151Z,16.80
2017-10-20T14:23:35.739Z,16.72
2017-10-20T14:26:03.687Z,16.71
2017-10-20T14:28:31.296Z,16.62
2017-10-20T14:30:58.933Z,16.58
2017-10-20T14:33:26.537Z,16.63
2017-10-20T14:35:54.161Z,16.71
2017-10-20T14:38:21.773Z,16.73
2017-10-20T14:40:49.373Z,16.66
2017-10-20T14:43:17.014Z,16.63
2017-10-20T14:45:44.618Z,16.65
2017-10-20T14:48:12.207Z,16.52
2017-10-20T14:50:39.841Z,16.44
2017-10-20T14:53:07.496Z,16.39
2017-10-20T14:55:35.143Z,16.40
2017-10-20T14:58:02.993Z,16.37
2017-10-20T15:00:30.581Z,16.36
2017-10-20T15:02:58.199Z,16.32
2017-10-20T15:05:25.784Z,16.34
2017-10-20T15:07:53.403Z,16.37
2017-10-20T15:10:21.013Z,16.42
2017-10-20T15:12:48.712Z,16.40
2017-10-20T15:15:16.333Z,16.41
2017-10-20T15:17:43.924Z,16.39
2017-10-20T15:20:11.553Z,16.36
2017-10-20T15:22:39.137Z,16.35
2017-10-20T15:25:06.725Z,16.31
2017-10-20T15:27:34.339Z,16.32
2017-10-20T15:30:01.924Z,16.35
2017-10-20T15:32:29.553Z,16.32
2017-10-20T15:34:57.141Z,16.41
2017-10-20T15:37:24.725Z,16.42
2017-10-20T15:39:52.450Z,16.30
2017-10-20T15:42:20.045Z,16.22
2017-10-20T15:44:47.664Z,16.18
2017-10-20T15:47:15.257Z,16.19
2017-10-20T15:49:42.842Z,16.15
2017-10-20T15:52:10.469Z,16.12
2017-10-20T15:54:38.083Z,16.13
2017-10-20T15:57:05.714Z,16.10
2017-10-20T15:59:33.364Z,16.11
2017-10-20T16:02:01.212Z,16.09
2017-10-20T16:04:28.826Z,16.04
2017-10-20T16:06:56.899Z,16.03
2017-10-20T16:09:24.569Z,16.02
2017-10-20T16:11:52.477Z,16.02
2017-10-20T16:14:20.073Z,16.03
2017-10-20T16:16:47.730Z,16.00
2017-10-20T16:19:15.325Z,16.00
2017-10-20T16:21:42.953Z,15.95
2017-10-20T16:24:10.591Z,15.93
2017-10-20T16:26:38.221Z,15.95
2017-10-20T16:29:05.849Z,15.94
2017-10-20T16:31:33.462Z,15.90
2017-10-20T16:34:01.095Z,15.88
2017-10-20T16:36:28.676Z,15.86
2017-10-20T16:38:56.292Z,15.88
2017-10-20T16:41:23.929Z,15.87
2017-10-20T16:43:51.533Z,15.90
2017-10-20T16:46:19.464Z,15.96
2017-10-20T16:48:47.386Z,15.92
2017-10-20T16:51:15.288Z,15.90
2017-10-20T16:53:43.158Z,15.88
2017-10-20T16:56:10.745Z,15.85
2017-10-20T16:58:38.386Z,15.78
2017-10-20T17:01:05.972Z,15.78
2017-10-20T17:03:33.555Z,15.75
2017-10-20T17:06:01.181Z,15.76
2017-10-20T17:08:29.032Z,15.72
2017-10-20T17:10:56.652Z,15.73
2017-10-20T17:13:24.274Z,15.72
2017-10-20T17:15:52.131Z,15.71
2017-10-20T17:18:19.773Z,15.70
2017-10-20T17:20:47.405Z,15.70
2017-10-20T17:23:15.317Z,15.68
2017-10-20T17:25:42.900Z,15.71
2017-10-20T17:28:10.849Z,15.80
2017-10-20T17:30:38.716Z,15.83
2017-10-20T17:33:06.383Z,15.78
2017-10-20T17:35:34.012Z,15.75
2017-10-20T17:38:01.911Z,15.72
2017-10-20T17:40:29.505Z,15.72
2017-10-20T17:42:57.117Z,15.71
2017-10-20T17:45:25.001Z,15.73
2017-10-20T17:47:52.976Z,15.70
2017-10-20T17:50:20.570Z,15.67
2017-10-20T17:52:48.401Z,15.68
2017-10-20T17:55:16.016Z,15.67
2017-10-20T17:57:43.608Z,15.66
2017-10-20T18:00:11.234Z,15.62
2017-10-20T18:02:38.852Z,15.65
2017-10-20T18:05:06.716Z,15.66
2017-10-20T18:07:34.341Z,15.69
2017-10-20T18:10:02.248Z,15.70
2017-10-20T18:12:29.869Z,15.69
2017-10-20T18:14:57.474Z,15.64
2017-10-20T18:17:25.058Z,15.62
2017-10-20T18:19:52.666Z,15.67
2017-10-20T18:22:20.253Z,15.65
2017-10-20T18:24:47.884Z,15.71
2017-10-20T18:27:15.469Z,15.67
2017-10-20T18:29:43.054Z,15.60
2017-10-20T18:32:11.022Z,15.56
2017-10-20T18:34:38.603Z,15.47
2017-10-20T18:37:06.229Z,15.39
2017-10-20T18:39:33.845Z,15.37
2017-10-20T18:42:01.445Z,15.31
2017-10-20T18:44:29.430Z,15.28
2017-10-20T18:46:57.024Z,15.27
2017-10-20T18:49:24.648Z,15.24
2017-10-20T18:51:52.521Z,15.25
2017-10-20T18:54:20.120Z,15.26
2017-10-20T18:56:48.058Z,15.27
2017-10-20T18:59:15.924Z,15.27
2017-10-20T19:01:43.787Z,15.28
2017-10-20T19:04:11.391Z,15.24
2017-10-20T19:06:38.991Z,15.26
2017-10-20T19:09:06.614Z,15.23
2017-10-20T19:11:34.227Z,15.18
2017-10-20T19:14:02.102Z,15.14
2017-10-20T19:16:29.970Z,15.06
2017-10-20T19:18:57.611Z,15.01
2017-10-20T19:21:25.229Z,15.00
2017-10-20T19:23:52.849Z,14.78
2017-10-20T19:26:20.473Z,14.70
2017-10-20T19:28:48.065Z,14.60
2017-10-20T19:31:15.890Z,14.55
2017-10-20T19:33:43.507Z,14.54
2017-10-20T19:36:11.095Z,14.54
2017-10-20T19:38:38.716Z,14.51
2017-10-20T19:41:06.318Z,14.55
2017-10-20T19:43:33.905Z,14.48
2017-10-20T19:46:01.578Z,14.49
2017-10-20T19:48:29.489Z,14.49
2017-10-20T19:50:57.122Z,14.46
2017-10-20T19:53:25.132Z,14.42
2017-10-20T19:55:52.728Z,14.44
2017-10-20T19:58:20.341Z,14.44
2017-10-20T20:00:48.745Z,14.47
2017-10-20T20:03:16.697Z,14.50
2017-10-20T20:05:44.290Z,14.52
2017-10-20T20:08:11.874Z,14.53
2017-10-20T20:10:39.487Z,14.55
2017-10-20T20:13:07.085Z,14.53
2017-10-20T20:15:34.708Z,14.52
2017-10-20T20:18:02.304Z,14.47
2017-10-20T20:20:30.241Z,14.44
2017-10-20T20:22:57.866Z,14.46
2017-10-20T20:25:25.464Z,14.38
2017-10-20T20:27:53.102Z,14.36
2017-10-20T20:30:21.610Z,14.29
2017-10-20T20:32:50.975Z,14.27
2017-10-20T20:35:18.614Z,14.27
2017-10-20T20:37:46.236Z,14.25
2017-10-20T20:40:13.818Z,14.22
2017-10-20T20:42:41.467Z,14.19
2017-10-20T20:45:09.057Z,14.14
2017-10-20T20:47:36.821Z,14.14
2017-10-20T20:50:04.444Z,14.09
2017-10-20T20:52:32.313Z,14.08
2017-10-20T20:55:00.288Z,14.07
2017-10-20T20:57:27.866Z,13.96
2017-10-20T20:59:55.453Z,13.98
2017-10-20T21:02:23.085Z,14.01
2017-10-20T21:04:50.675Z,13.99
2017-10-20T21:07:18.320Z,14.00
2017-10-20T21:09:46.265Z,13.99
2017-10-20T21:12:13.892Z,13.97
2017-10-20T21:14:41.516Z,13.96
2017-10-20T21:17:09.093Z,13.94
2017-10-20T21:19:36.913Z,13.93
2017-10-20T21:22:04.778Z,13.91
2017-10-20T21:24:32.365Z,13.88
2017-10-20T21:26:59.978Z,13.85
2017-10-20T21:29:27.566Z,13.85
2017-10-20T21:31:55.198Z,13.78
2017-10-20T21:34:22.802Z,13.77
2017-10-20T21:36:50.386Z,13.74
2017-10-20T21:39:18.018Z,13.74
2017-10-20T21:41:45.597Z,13.71
2017-10-20T21:44:13.218Z,13.67
2017-10-20T21:46:41.049Z,13.64
2017-10-20T21:49:08.636Z,13.62
2017-10-20T21:51:36.277Z,13.58
2017-10-20T21:54:03.868Z,13.57
2017-10-20T21:56:32.254Z,13.55
2017-10-20T21:59:00.137Z,13.54
2017-10-20T22:01:27.718Z,13.51
2017-10-20T22:03:55.339Z,13.48
2017-10-20T22:06:22.921Z,13.47
2017-10-20T22:08:50.724Z,13.45
2017-10-20T22:11:18.319Z,13.45
2017-10-20T22:13:45.905Z,13.43
2017-10-20T22:16:13.511Z,13.35
2017-10-20T22:18:41.445Z,13.29
2017-10-20T22:21:09.058Z,13.25
2017-10-20T22:23:36.646Z,13.28
2017-10-20T22:26:04.272Z,13.26
2017-10-20T22:28:32.193Z,13.24
2017-10-20T22:30:59.800Z,13.30
2017-10-20T22:33:27.450Z,13.30
2017-10-20T22:35:55.037Z,13.32
2017-10-20T22:38:22.661Z,13.29
2017-10-20T22:40:50.964Z,13.22
2017-10-20T22:43:18.562Z,13.20
2017-10-20T22:45:46.192Z,13.16
2017-10-20T22:48:13.785Z,13.12
2017-10-20T22:50:41.415Z,13.13
2017-10-20T22:53:09.349Z,13.12
2017-10-20T22:55:36.958Z,13.06
2017-10-20T22:58:04.586Z,13.02
2017-10-20T23:00:32.207Z,13.02
2017-10-20T23:02:59.850Z,12.97
2017-10-20T23:05:27.447Z,12.97
2017-10-20T23:07:55.313Z,12.96
2017-10-20T23:10:22.929Z,12.96
2017-10-20T23:12:50.514Z,12.98
2017-10-20T23:15:18.156Z,13.01
2017-10-20T23:17:45.753Z,13.04
2017-10-20T23:20:13.349Z,13.00
2017-10-20T23:22:40.961Z,12.92
2017-10-20T23:25:08.540Z,12.90
2017-10-20T23:27:36.520Z,12.89
2017-10-20T23:30:04.113Z,12.94
2017-10-20T23:32:31.696Z,12.98
2017-10-20T23:34:59.304Z,13.01
2017-10-20T23:37:26.890Z,13.02
2017-10-20T23:39:54.529Z,13.06
2017-10-20T23:42:22.114Z,13.06
2017-10-20T23:44:49.705Z,13.07
2017-10-20T23:47:17.352Z,13.05
2017-10-20T23:49:44.941Z,13.02
2017-10-20T23:52:12.558Z,12.98
2017-10-20T23:54:40.143Z,12.92
2017-10-20T23:57:07.733Z,12.86
2017-10-20T23:59:35.339Z,12.83
